createdAt,value
2019-01-09T00:00:01.924Z,5.76
2019-01-09T00:03:11.534Z,5.70
2019-01-09T00:06:01.530Z,5.75
2019-01-09T00:08:48.691Z,5.68
2019-01-09T00:11:20.766Z,5.59
2019-01-09T00:13:49.951Z,5.60
2019-01-09T00:16:39.063Z,5.59
2019-01-09T00:22:09.183Z,5.44
2019-01-09T00:40:10.121Z,5.46
2019-01-09T00:42:42.122Z,5.43
2019-01-09T00:45:12.344Z,5.45
2019-01-09T00:53:45.096Z,5.45
2019-01-09T00:56:13.918Z,5.40
2019-01-09T00:58:43.021Z,5.25
2019-01-09T01:01:33.437Z,5.20
2019-01-09T01:08:06.297Z,5.21
2019-01-09T01:11:13.593Z,5.03
2019-01-09T01:17:19.795Z,4.69
2019-01-09T01:20:14.106Z,4.61
2019-01-09T01:26:18.631Z,4.66
2019-01-09T01:29:25.795Z,4.44
2019-01-09T01:32:33.054Z,4.45
2019-01-09T01:35:40.175Z,4.39
2019-01-09T01:38:28.442Z,4.31
2019-01-09T01:41:20.727Z,4.38
2019-01-09T01:44:27.885Z,4.39
2019-01-09T01:47:35.022Z,4.50
2019-01-09T01:50:42.160Z,4.51
2019-01-09T01:53:49.303Z,4.45
2019-01-09T01:56:56.417Z,4.77
2019-01-09T02:00:03.558Z,4.58
2019-01-09T02:02:58.866Z,4.61
2019-01-09T02:06:06.001Z,4.64
2019-01-09T02:09:13.166Z,4.63
2019-01-09T02:12:06.186Z,4.68
2019-01-09T02:15:13.363Z,4.84
2019-01-09T02:18:20.506Z,4.79
2019-01-09T02:21:27.645Z,4.89
2019-01-09T02:24:34.793Z,4.96
2019-01-09T02:27:25.831Z,4.99
2019-01-09T02:30:16.954Z,4.92
2019-01-09T02:32:45.620Z,4.89
2019-01-09T02:35:14.403Z,4.92
2019-01-09T02:37:43.009Z,4.87
2019-01-09T02:40:11.779Z,4.84
2019-01-09T02:42:40.604Z,4.89
2019-01-09T02:45:09.394Z,4.91
2019-01-09T02:47:38.192Z,4.91
2019-01-09T02:50:07.562Z,4.91
2019-01-09T02:52:36.296Z,4.86
2019-01-09T02:55:05.759Z,4.82
2019-01-09T02:57:34.563Z,4.84
2019-01-09T03:00:03.755Z,4.79
2019-01-09T03:02:32.456Z,4.80
2019-01-09T03:05:01.238Z,4.75
2019-01-09T03:07:30.029Z,4.67
2019-01-09T03:09:58.646Z,4.72
2019-01-09T03:12:27.383Z,4.67
2019-01-09T03:14:55.999Z,4.69
2019-01-09T03:17:24.648Z,4.71
2019-01-09T03:19:53.302Z,4.78
2019-01-09T03:22:22.026Z,4.71
2019-01-09T03:24:50.652Z,4.74
2019-01-09T03:27:19.373Z,4.53
2019-01-09T03:29:48.010Z,4.48
2019-01-09T03:32:16.874Z,4.36
2019-01-09T03:34:45.621Z,4.51
2019-01-09T03:37:14.402Z,4.42
2019-01-09T03:39:43.093Z,4.48
2019-01-09T03:42:11.791Z,4.54
2019-01-09T03:44:40.510Z,4.41
2019-01-09T03:47:09.248Z,4.41
2019-01-09T03:49:37.967Z,4.33
2019-01-09T03:52:06.683Z,4.44
2019-01-09T03:54:35.455Z,4.43
2019-01-09T03:57:04.101Z,4.35
2019-01-09T03:59:32.860Z,4.48
2019-01-09T04:02:01.465Z,4.36
2019-01-09T04:04:30.127Z,4.45
2019-01-09T04:06:58.790Z,4.48
2019-01-09T04:09:27.453Z,4.59
2019-01-09T04:11:56.179Z,4.46
2019-01-09T04:14:24.808Z,4.51
2019-01-09T04:16:53.447Z,4.54
2019-01-09T04:19:22.159Z,4.42
2019-01-09T04:21:50.843Z,4.49
2019-01-09T04:24:19.569Z,4.40
2019-01-09T04:26:48.308Z,4.45
2019-01-09T04:29:17.078Z,4.45
2019-01-09T04:31:45.806Z,4.34
2019-01-09T04:34:14.548Z,4.41
2019-01-09T04:36:51.384Z,4.39
2019-01-09T04:39:13.689Z,4.38
2019-01-09T04:41:42.532Z,4.39
2019-01-09T04:44:11.300Z,4.45
2019-01-09T04:46:40.036Z,4.34
2019-01-09T04:49:08.828Z,4.39
2019-01-09T04:51:37.507Z,4.45
2019-01-09T04:54:06.240Z,4.37
2019-01-09T04:56:34.857Z,4.36
2019-01-09T04:59:03.591Z,4.39
2019-01-09T05:01:32.266Z,4.39
2019-01-09T05:04:00.988Z,4.42
2019-01-09T05:06:29.618Z,4.36
2019-01-09T05:08:58.253Z,4.14
2019-01-09T05:11:26.942Z,4.35
2019-01-09T05:13:55.566Z,4.28
2019-01-09T05:16:24.238Z,4.33
2019-01-09T05:18:52.853Z,4.39
2019-01-09T05:21:21.519Z,4.36
2019-01-09T05:23:50.174Z,4.18
2019-01-09T05:26:18.943Z,4.16
2019-01-09T05:28:47.617Z,4.14
2019-01-09T05:31:16.293Z,4.08
2019-01-09T05:33:45.009Z,4.07
2019-01-09T05:36:13.780Z,4.15
2019-01-09T05:38:42.470Z,4.04
2019-01-09T05:41:11.176Z,4.15
2019-01-09T05:43:39.875Z,4.02
2019-01-09T05:48:28.645Z,4.14
2019-01-09T05:50:57.339Z,4.08
2019-01-09T05:53:25.954Z,4.19
2019-01-09T05:58:29.385Z,4.03
2019-01-09T06:00:58.075Z,4.11
2019-01-09T06:03:26.805Z,4.01
2019-01-09T06:05:55.620Z,4.17
2019-01-09T06:08:24.349Z,4.25
2019-01-09T06:10:53.049Z,4.19
2019-01-09T06:13:21.740Z,4.21
2019-01-09T06:15:50.375Z,4.30
2019-01-09T06:18:19.071Z,4.37
2019-01-09T06:20:47.792Z,4.35
2019-01-09T06:23:16.456Z,4.27
2019-01-09T06:25:45.148Z,4.27
2019-01-09T06:28:13.758Z,4.25
2019-01-09T06:33:30.200Z,4.21
2019-01-09T06:35:58.956Z,4.25
2019-01-09T06:38:27.621Z,4.32
2019-01-09T06:40:56.255Z,4.29
2019-01-09T06:43:24.938Z,4.35
2019-01-09T06:45:53.550Z,4.32
2019-01-09T06:48:22.205Z,4.29
2019-01-09T06:50:50.881Z,4.30
2019-01-09T06:53:19.510Z,4.36
2019-01-09T06:55:48.308Z,4.46
2019-01-09T06:58:16.929Z,4.49
2019-01-09T07:00:45.579Z,4.55
2019-01-09T07:03:14.251Z,4.58
2019-01-09T07:05:42.903Z,4.59
2019-01-09T07:08:11.529Z,4.59
2019-01-09T07:10:40.166Z,4.53
2019-01-09T07:13:08.786Z,4.56
2019-01-09T07:15:37.532Z,4.57
2019-01-09T07:18:06.248Z,4.59
2019-01-09T07:20:34.982Z,4.60
2019-01-09T07:23:03.732Z,4.50
2019-01-09T07:25:32.443Z,4.44
2019-01-09T07:28:01.266Z,4.56
2019-01-09T07:30:29.934Z,4.57
2019-01-09T07:32:58.750Z,4.50
2019-01-09T07:35:27.495Z,4.56
2019-01-09T07:37:56.133Z,4.58
2019-01-09T07:40:24.784Z,4.62
2019-01-09T07:42:53.372Z,4.56
2019-01-09T07:45:22.033Z,4.62
2019-01-09T07:47:50.699Z,4.54
2019-01-09T07:50:19.413Z,4.58
2019-01-09T07:52:48.050Z,4.64
2019-01-09T07:55:16.729Z,4.69
2019-01-09T07:57:45.366Z,4.69
2019-01-09T08:00:14.050Z,4.66
2019-01-09T08:02:42.655Z,4.62
2019-01-09T08:05:11.546Z,4.56
2019-01-09T08:07:40.169Z,4.60
2019-01-09T08:10:10.059Z,4.68
2019-01-09T08:12:38.731Z,4.71
2019-01-09T08:15:08.167Z,4.63
2019-01-09T08:17:36.794Z,4.63
2019-01-09T08:20:06.068Z,4.31
2019-01-09T08:22:34.688Z,4.37
2019-01-09T08:25:03.403Z,4.18
2019-01-09T08:27:32.146Z,4.32
2019-01-09T08:30:00.810Z,4.24
2019-01-09T08:32:29.441Z,4.34
2019-01-09T08:34:58.061Z,4.37
2019-01-09T08:37:26.665Z,4.42
2019-01-09T08:39:55.288Z,4.38
2019-01-09T08:42:24.009Z,4.44
2019-01-09T08:44:52.670Z,4.50
2019-01-09T08:47:21.326Z,4.39
2019-01-09T08:49:49.973Z,4.40
2019-01-09T08:52:19.359Z,4.46
2019-01-09T08:54:47.986Z,4.46
2019-01-09T08:57:16.609Z,4.50
2019-01-09T08:59:45.226Z,4.50
2019-01-09T09:02:13.893Z,4.62
2019-01-09T09:04:42.652Z,4.68
2019-01-09T09:07:11.372Z,4.70
2019-01-09T09:09:39.993Z,4.82
2019-01-09T09:12:08.714Z,4.87
2019-01-09T09:14:37.464Z,4.94
2019-01-09T09:17:06.293Z,4.94
2019-01-09T09:19:35.033Z,4.88
2019-01-09T09:22:03.827Z,5.05
2019-01-09T09:24:32.579Z,5.15
2019-01-09T09:27:01.302Z,5.15
2019-01-09T09:29:32.029Z,5.26
2019-01-09T09:32:00.588Z,5.28
2019-01-09T09:34:48.655Z,5.27
2019-01-09T09:37:19.060Z,5.27
2019-01-09T09:39:48.170Z,5.22
2019-01-09T09:42:16.866Z,5.10
2019-01-09T09:44:45.622Z,5.20
2019-01-09T09:47:14.421Z,5.25
2019-01-09T09:49:43.220Z,5.33
2019-01-09T09:52:12.102Z,5.36
2019-01-09T09:54:40.865Z,5.22
2019-01-09T09:57:09.546Z,5.29
2019-01-09T09:59:38.320Z,5.05
2019-01-09T10:02:07.119Z,4.96
2019-01-09T10:04:35.893Z,5.02
2019-01-09T10:07:04.877Z,5.02
2019-01-09T10:09:35.916Z,5.03
2019-01-09T10:12:04.969Z,5.14
2019-01-09T10:14:34.294Z,5.25
2019-01-09T10:17:03.241Z,5.28
2019-01-09T10:19:34.851Z,5.33
2019-01-09T10:22:03.847Z,5.28
2019-01-09T10:24:32.774Z,5.43
2019-01-09T10:27:02.097Z,5.48
2019-01-09T10:29:31.033Z,5.61
2019-01-09T10:31:59.960Z,5.70
2019-01-09T10:34:28.952Z,5.76
2019-01-09T10:36:57.828Z,5.74
2019-01-09T10:39:26.576Z,5.67
2019-01-09T10:41:55.824Z,5.65
2019-01-09T10:44:24.704Z,5.67
2019-01-09T10:46:53.729Z,5.67
2019-01-09T10:49:22.446Z,5.68
2019-01-09T10:51:51.434Z,5.66
2019-01-09T10:54:20.261Z,5.60
2019-01-09T10:56:49.163Z,5.65
2019-01-09T10:59:17.971Z,5.68
2019-01-09T11:01:47.018Z,5.69
2019-01-09T11:07:24.145Z,5.76
2019-01-09T11:09:52.920Z,5.70
2019-01-09T11:12:21.776Z,5.68
2019-01-09T11:14:50.624Z,5.69
2019-01-09T11:17:19.464Z,5.81
2019-01-09T11:19:49.015Z,5.81
2019-01-09T11:22:18.073Z,5.70
2019-01-09T11:24:47.040Z,5.74
2019-01-09T11:27:16.203Z,5.64
2019-01-09T11:29:44.950Z,5.65
2019-01-09T11:32:13.830Z,5.67
2019-01-09T11:34:42.941Z,5.70
2019-01-09T11:37:11.807Z,5.76
2019-01-09T11:39:40.822Z,5.75
2019-01-09T11:42:09.763Z,5.81
2019-01-09T11:44:38.617Z,5.99
2019-01-09T11:47:47.061Z,5.96
2019-01-09T11:50:16.055Z,5.87
2019-01-09T11:52:45.598Z,5.77
2019-01-09T11:55:14.960Z,5.80
2019-01-09T11:57:43.697Z,5.72
2019-01-09T12:00:18.848Z,5.67
2019-01-09T12:02:47.513Z,5.69
2019-01-09T12:05:16.265Z,5.71
2019-01-09T12:07:46.962Z,5.62
2019-01-09T12:10:17.095Z,5.58
2019-01-09T12:12:46.308Z,5.59
2019-01-09T12:15:15.914Z,5.65
2019-01-09T12:17:44.667Z,5.68
2019-01-09T12:23:40.873Z,5.79
2019-01-09T12:26:28.717Z,5.78
2019-01-09T12:28:57.486Z,5.84
2019-01-09T12:31:26.221Z,5.80
2019-01-09T12:33:54.926Z,5.83
2019-01-09T12:36:23.721Z,5.91
2019-01-09T12:38:52.608Z,5.80
2019-01-09T12:41:21.490Z,5.75
2019-01-09T12:43:50.318Z,5.76
2019-01-09T12:46:19.167Z,5.73
2019-01-09T12:48:48.079Z,5.65
2019-01-09T12:51:16.813Z,5.67
2019-01-09T12:53:45.617Z,5.73
2019-01-09T12:56:14.334Z,5.70
2019-01-09T12:58:43.058Z,5.74
2019-01-09T13:01:11.782Z,5.78
2019-01-09T13:03:40.481Z,5.74
2019-01-09T13:06:09.507Z,5.69
2019-01-09T13:08:38.326Z,5.72
2019-01-09T13:11:27.849Z,5.67
2019-01-09T13:13:56.601Z,5.69
2019-01-09T13:16:25.236Z,5.73
2019-01-09T13:18:54.069Z,5.63
2019-01-09T13:21:22.705Z,5.48
2019-01-09T13:23:51.430Z,5.56
2019-01-09T13:26:20.079Z,5.56
2019-01-09T13:28:48.763Z,5.54
2019-01-09T13:31:17.456Z,5.56
2019-01-09T13:33:46.119Z,5.43
2019-01-09T13:36:17.133Z,5.51
2019-01-09T13:38:45.850Z,5.53
2019-01-09T13:41:14.484Z,5.50
2019-01-09T13:43:43.315Z,5.55
2019-01-09T13:46:31.073Z,5.57
2019-01-09T13:48:59.883Z,5.59
2019-01-09T13:51:28.698Z,5.61
2019-01-09T13:53:57.468Z,5.62
2019-01-09T13:56:26.202Z,5.53
2019-01-09T13:58:55.031Z,5.61
2019-01-09T14:01:23.860Z,5.52
2019-01-09T14:03:52.608Z,5.43
2019-01-09T14:06:21.501Z,5.45
2019-01-09T14:08:50.131Z,5.47
2019-01-09T14:11:21.148Z,5.50
2019-01-09T14:13:49.801Z,5.48
2019-01-09T14:16:18.494Z,5.47
2019-01-09T14:18:55.193Z,5.30
2019-01-09T14:21:19.921Z,5.30
2019-01-09T14:23:48.714Z,5.27
2019-01-09T14:26:17.563Z,5.30
2019-01-09T14:28:47.189Z,5.30
2019-01-09T14:31:19.420Z,5.29
2019-01-09T14:33:48.169Z,5.25
2019-01-09T14:36:17.073Z,5.28
2019-01-09T14:38:45.952Z,5.25
2019-01-09T14:41:14.685Z,5.17
2019-01-09T14:43:43.556Z,5.18
2019-01-09T14:46:12.367Z,5.17
2019-01-09T14:48:41.138Z,5.14
2019-01-09T14:51:10.038Z,5.08
2019-01-09T14:53:38.828Z,5.12
2019-01-09T14:56:09.891Z,5.17
2019-01-09T14:58:38.578Z,5.19
2019-01-09T15:01:07.560Z,5.22
2019-01-09T15:03:36.265Z,5.14
2019-01-09T15:06:05.193Z,5.06
2019-01-09T15:08:33.923Z,5.06
2019-01-09T15:11:02.774Z,5.06
2019-01-09T15:13:31.498Z,5.06
2019-01-09T15:16:00.405Z,5.00
2019-01-09T15:18:29.267Z,4.95
2019-01-09T15:20:58.076Z,4.99
2019-01-09T15:23:26.944Z,5.03
2019-01-09T15:25:58.197Z,4.96
2019-01-09T15:28:27.188Z,5.06
2019-01-09T15:30:55.934Z,5.04
2019-01-09T15:33:24.941Z,4.92
2019-01-09T15:35:53.818Z,4.84
2019-01-09T15:38:22.801Z,4.84
2019-01-09T15:40:51.698Z,4.81
2019-01-09T15:43:20.572Z,4.80
2019-01-09T15:45:49.674Z,4.83
2019-01-09T15:48:18.536Z,4.82
2019-01-09T15:50:47.690Z,4.73
2019-01-09T15:53:16.581Z,4.75
2019-01-09T15:58:53.695Z,4.81
2019-01-09T16:01:22.381Z,4.72
2019-01-09T16:03:50.946Z,4.71
2019-01-09T16:06:19.639Z,4.74
2019-01-09T16:08:48.274Z,4.77
2019-01-09T16:11:16.929Z,4.74
2019-01-09T16:14:05.197Z,4.71
2019-01-09T16:16:53.092Z,4.69
2019-01-09T16:19:21.702Z,4.73
2019-01-09T16:21:50.467Z,4.66
2019-01-09T16:36:32.631Z,5.07
2019-01-09T16:39:01.258Z,4.89
2019-01-09T16:41:29.996Z,4.83
2019-01-09T16:43:58.927Z,4.86
2019-01-09T16:46:27.545Z,4.70
2019-01-09T16:48:56.279Z,4.71
2019-01-09T16:51:25.049Z,4.67
2019-01-09T16:53:53.712Z,4.71
2019-01-09T16:56:22.510Z,4.58
2019-01-09T16:58:51.455Z,4.57
2019-01-09T17:01:20.319Z,4.55
2019-01-09T17:03:49.209Z,4.51
2019-01-09T17:06:18.145Z,4.45
2019-01-09T17:08:46.904Z,4.44
2019-01-09T17:11:30.782Z,4.51
2019-01-09T17:17:16.385Z,4.43
2019-01-09T17:25:20.150Z,4.37
2019-01-09T17:27:49.643Z,4.34
2019-01-09T17:39:38.581Z,4.18
2019-01-09T17:42:33.653Z,4.16
2019-01-09T17:54:50.566Z,4.07
2019-01-09T17:57:15.913Z,4.01
2019-01-09T18:00:05.842Z,3.94
2019-01-09T18:14:23.125Z,3.84
2019-01-09T18:29:33.277Z,3.95
2019-01-09T18:35:49.544Z,4.01
2019-01-09T18:44:41.709Z,3.94
2019-01-09T18:48:13.255Z,4.00
2019-01-09T18:53:43.153Z,4.00
2019-01-09T18:56:14.685Z,4.00
2019-01-09T19:13:57.064Z,3.95
2019-01-09T19:16:12.078Z,3.96
2019-01-09T19:19:02.951Z,4.01
2019-01-09T19:27:33.012Z,3.97
2019-01-09T19:30:36.877Z,4.04
2019-01-09T19:36:09.453Z,4.03
2019-01-09T19:39:36.291Z,4.01
2019-01-09T19:56:28.230Z,4.03
2019-01-09T20:02:12.229Z,3.97
2019-01-09T20:04:42.735Z,3.96
2019-01-09T20:10:40.395Z,4.04
2019-01-09T20:13:30.727Z,4.05
2019-01-09T20:16:03.439Z,4.05
2019-01-09T20:18:34.944Z,3.98
2019-01-09T20:21:22.124Z,3.89
2019-01-09T20:30:03.631Z,3.89
2019-01-09T20:45:05.662Z,3.92
2019-01-09T20:50:37.057Z,3.99
2019-01-09T20:59:17.879Z,3.93
2019-01-09T21:01:49.506Z,3.93
2019-01-09T21:10:26.805Z,4.01
2019-01-09T21:19:18.624Z,4.00
2019-01-09T21:27:30.061Z,3.98
2019-01-09T21:30:19.536Z,4.01
2019-01-09T21:41:53.717Z,3.92
2019-01-09T21:56:15.744Z,3.90
2019-01-09T22:01:49.962Z,3.92
2019-01-09T22:10:42.170Z,3.90
2019-01-09T22:16:08.440Z,3.90
2019-01-09T22:21:55.862Z,3.90
2019-01-09T22:27:30.472Z,3.93
2019-01-09T22:43:00.251Z,4.02
2019-01-09T22:51:28.979Z,3.98
2019-01-09T22:54:36.337Z,4.03
2019-01-09T22:57:01.604Z,4.00
2019-01-09T23:00:14.351Z,3.99
2019-01-09T23:06:00.735Z,4.08
2019-01-09T23:40:01.416Z,4.11
2019-01-09T23:45:27.084Z,4.09
2019-01-09T23:54:30.355Z,4.07
2019-01-09T23:57:03.939Z,4.13
2019-01-09T23:59:34.847Z,4.05
